sensor_id;sensor_type;location;lat;lon;timestamp;P1;durP1;ratioP1;P2;durP2;ratioP2
80179;SDS011;69505;52.134;5.438;2024-02-26T00:00:28;3.55;;;2.55;;
80179;SDS011;69505;52.134;5.438;2024-02-26T00:02:56;2.92;;;2.20;;
80179;SDS011;69505;52.134;5.438;2024-02-26T00:05:22;4.47;;;2.47;;
80179;SDS011;69505;52.134;5.438;2024-02-26T00:07:49;3.53;;;2.38;;
80179;SDS011;69505;52.134;5.438;2024-02-26T00:10:16;5.15;;;2.92;;
80179;SDS011;69505;52.134;5.438;2024-02-26T00:12:42;4.90;;;2.30;;
80179;SDS011;69505;52.134;5.438;2024-02-26T00:15:09;4.15;;;2.13;;
80179;SDS011;69505;52.134;5.438;2024-02-26T00:17:36;5.07;;;2.65;;
80179;SDS011;69505;52.134;5.438;2024-02-26T00:20:04;3.75;;;2.60;;
80179;SDS011;69505;52.134;5.438;2024-02-26T00:22:34;3.92;;;2.47;;
80179;SDS011;69505;52.134;5.438;2024-02-26T00:25:01;4.88;;;2.38;;
80179;SDS011;69505;52.134;5.438;2024-02-26T00:27:28;3.85;;;2.53;;
80179;SDS011;69505;52.134;5.438;2024-02-26T00:29:55;3.50;;;2.50;;
80179;SDS011;69505;52.134;5.438;2024-02-26T00:32:21;4.60;;;3.05;;
80179;SDS011;69505;52.134;5.438;2024-02-26T00:34:48;4.78;;;3.10;;
80179;SDS011;69505;52.134;5.438;2024-02-26T00:37:15;4.72;;;2.80;;
80179;SDS011;69505;52.134;5.438;2024-02-26T00:39:41;4.05;;;2.80;;
80179;SDS011;69505;52.134;5.438;2024-02-26T00:42:08;4.53;;;2.78;;
80179;SDS011;69505;52.134;5.438;2024-02-26T00:44:35;5.05;;;2.90;;
80179;SDS011;69505;52.134;5.438;2024-02-26T00:47:02;4.47;;;2.97;;
80179;SDS011;69505;52.134;5.438;2024-02-26T00:49:28;3.72;;;2.38;;
80179;SDS011;69505;52.134;5.438;2024-02-26T00:51:55;4.68;;;2.92;;
80179;SDS011;69505;52.134;5.438;2024-02-26T00:54:22;4.45;;;2.97;;
80179;SDS011;69505;52.134;5.438;2024-02-26T00:56:49;3.95;;;2.90;;
80179;SDS011;69505;52.134;5.438;2024-02-26T00:59:16;4.85;;;3.38;;
80179;SDS011;69505;52.134;5.438;2024-02-26T01:01:42;4.05;;;3.35;;
80179;SDS011;69505;52.134;5.438;2024-02-26T01:04:09;3.83;;;3.00;;
80179;SDS011;69505;52.134;5.438;2024-02-26T01:06:36;3.65;;;3.30;;
80179;SDS011;69505;52.134;5.438;2024-02-26T01:09:03;6.03;;;3.28;;
80179;SDS011;69505;52.134;5.438;2024-02-26T01:11:30;5.35;;;3.30;;
80179;SDS011;69505;52.134;5.438;2024-02-26T01:13:56;5.47;;;3.20;;
80179;SDS011;69505;52.134;5.438;2024-02-26T01:16:23;4.30;;;3.17;;
80179;SDS011;69505;52.134;5.438;2024-02-26T01:18:50;4.82;;;3.38;;
80179;SDS011;69505;52.134;5.438;2024-02-26T01:21:17;3.88;;;3.08;;
80179;SDS011;69505;52.134;5.438;2024-02-26T01:23:44;5.60;;;3.03;;
80179;SDS011;69505;52.134;5.438;2024-02-26T01:26:11;4.35;;;3.00;;
80179;SDS011;69505;52.134;5.438;2024-02-26T01:28:37;4.60;;;2.78;;
80179;SDS011;69505;52.134;5.438;2024-02-26T01:31:04;7.57;;;3.40;;
80179;SDS011;69505;52.134;5.438;2024-02-26T01:33:33;5.13;;;3.28;;
80179;SDS011;69505;52.134;5.438;2024-02-26T01:36:00;4.65;;;3.33;;
80179;SDS011;69505;52.134;5.438;2024-02-26T01:38:27;4.70;;;3.40;;
80179;SDS011;69505;52.134;5.438;2024-02-26T01:40:54;6.40;;;3.30;;
80179;SDS011;69505;52.134;5.438;2024-02-26T01:43:21;4.55;;;3.17;;
80179;SDS011;69505;52.134;5.438;2024-02-26T01:45:47;5.57;;;3.60;;
80179;SDS011;69505;52.134;5.438;2024-02-26T01:48:14;5.55;;;3.20;;
80179;SDS011;69505;52.134;5.438;2024-02-26T01:50:41;5.47;;;3.05;;
80179;SDS011;69505;52.134;5.438;2024-02-26T01:53:08;5.22;;;3.25;;
80179;SDS011;69505;52.134;5.438;2024-02-26T01:55:35;6.85;;;2.95;;
80179;SDS011;69505;52.134;5.438;2024-02-26T01:58:02;6.40;;;3.40;;
80179;SDS011;69505;52.134;5.438;2024-02-26T02:00:29;7.47;;;3.40;;
80179;SDS011;69505;52.134;5.438;2024-02-26T02:02:57;4.97;;;3.20;;
80179;SDS011;69505;52.134;5.438;2024-02-26T02:05:24;4.82;;;3.28;;
80179;SDS011;69505;52.134;5.438;2024-02-26T02:07:52;5.47;;;3.22;;
80179;SDS011;69505;52.134;5.438;2024-02-26T02:10:19;4.88;;;3.30;;
80179;SDS011;69505;52.134;5.438;2024-02-26T02:12:51;4.57;;;3.25;;
80179;SDS011;69505;52.134;5.438;2024-02-26T02:15:18;5.13;;;3.40;;
80179;SDS011;69505;52.134;5.438;2024-02-26T02:17:45;4.80;;;3.35;;
80179;SDS011;69505;52.134;5.438;2024-02-26T02:20:16;4.78;;;3.20;;
80179;SDS011;69505;52.134;5.438;2024-02-26T02:22:44;4.78;;;3.28;;
80179;SDS011;69505;52.134;5.438;2024-02-26T02:25:12;4.97;;;3.30;;
80179;SDS011;69505;52.134;5.438;2024-02-26T02:27:39;4.70;;;3.47;;
80179;SDS011;69505;52.134;5.438;2024-02-26T02:30:07;6.55;;;3.45;;
80179;SDS011;69505;52.134;5.438;2024-02-26T02:32:36;4.75;;;3.25;;
80179;SDS011;69505;52.134;5.438;2024-02-26T02:35:06;4.57;;;3.33;;
80179;SDS011;69505;52.134;5.438;2024-02-26T02:37:33;4.47;;;2.88;;
80179;SDS011;69505;52.134;5.438;2024-02-26T02:40:00;6.38;;;3.63;;
80179;SDS011;69505;52.134;5.438;2024-02-26T02:42:27;4.40;;;2.80;;
80179;SDS011;69505;52.134;5.438;2024-02-26T02:44:53;5.72;;;3.80;;
80179;SDS011;69505;52.134;5.438;2024-02-26T02:47:20;4.68;;;2.92;;
80179;SDS011;69505;52.134;5.438;2024-02-26T02:49:47;4.97;;;3.10;;
80179;SDS011;69505;52.134;5.438;2024-02-26T02:52:13;4.97;;;3.17;;
80179;SDS011;69505;52.134;5.438;2024-02-26T02:54:40;4.72;;;2.80;;
80179;SDS011;69505;52.134;5.438;2024-02-26T02:57:08;5.97;;;3.60;;
80179;SDS011;69505;52.134;5.438;2024-02-26T02:59:36;4.88;;;3.33;;
80179;SDS011;69505;52.134;5.438;2024-02-26T03:02:03;5.25;;;3.45;;
80179;SDS011;69505;52.134;5.438;2024-02-26T03:04:31;4.75;;;3.20;;
80179;SDS011;69505;52.134;5.438;2024-02-26T03:06:58;7.28;;;3.17;;
80179;SDS011;69505;52.134;5.438;2024-02-26T03:09:25;5.63;;;3.08;;
80179;SDS011;69505;52.134;5.438;2024-02-26T03:11:51;5.55;;;3.50;;
80179;SDS011;69505;52.134;5.438;2024-02-26T03:14:18;5.07;;;3.30;;
80179;SDS011;69505;52.134;5.438;2024-02-26T03:16:45;6.13;;;3.45;;
80179;SDS011;69505;52.134;5.438;2024-02-26T03:19:14;5.20;;;3.40;;
80179;SDS011;69505;52.134;5.438;2024-02-26T03:21:42;7.07;;;3.58;;
80179;SDS011;69505;52.134;5.438;2024-02-26T03:24:09;6.35;;;3.63;;
80179;SDS011;69505;52.134;5.438;2024-02-26T03:26:37;7.15;;;3.67;;
80179;SDS011;69505;52.134;5.438;2024-02-26T03:29:04;6.20;;;3.45;;
80179;SDS011;69505;52.134;5.438;2024-02-26T03:31:31;6.40;;;3.80;;
80179;SDS011;69505;52.134;5.438;2024-02-26T03:33:58;7.75;;;3.90;;
80179;SDS011;69505;52.134;5.438;2024-02-26T03:36:25;6.43;;;4.18;;
80179;SDS011;69505;52.134;5.438;2024-02-26T03:38:52;6.70;;;4.07;;
80179;SDS011;69505;52.134;5.438;2024-02-26T03:41:19;6.72;;;3.95;;
80179;SDS011;69505;52.134;5.438;2024-02-26T03:43:45;5.93;;;4.07;;
80179;SDS011;69505;52.134;5.438;2024-02-26T03:46:12;5.60;;;3.72;;
80179;SDS011;69505;52.134;5.438;2024-02-26T03:48:40;7.13;;;4.30;;
80179;SDS011;69505;52.134;5.438;2024-02-26T03:51:08;6.80;;;4.28;;
80179;SDS011;69505;52.134;5.438;2024-02-26T03:53:36;7.45;;;4.55;;
80179;SDS011;69505;52.134;5.438;2024-02-26T03:56:03;7.38;;;4.47;;
80179;SDS011;69505;52.134;5.438;2024-02-26T03:58:31;6.57;;;4.75;;
80179;SDS011;69505;52.134;5.438;2024-02-26T04:00:58;8.10;;;4.00;;
80179;SDS011;69505;52.134;5.438;2024-02-26T04:03:26;7.32;;;4.38;;
80179;SDS011;69505;52.134;5.438;2024-02-26T04:05:53;5.82;;;3.55;;
80179;SDS011;69505;52.134;5.438;2024-02-26T04:08:20;6.80;;;4.38;;
80179;SDS011;69505;52.134;5.438;2024-02-26T04:10:47;7.55;;;4.28;;
80179;SDS011;69505;52.134;5.438;2024-02-26T04:13:13;7.20;;;4.10;;
80179;SDS011;69505;52.134;5.438;2024-02-26T04:15:41;8.35;;;4.43;;
80179;SDS011;69505;52.134;5.438;2024-02-26T04:18:07;7.07;;;4.25;;
80179;SDS011;69505;52.134;5.438;2024-02-26T04:20:34;6.47;;;4.18;;
80179;SDS011;69505;52.134;5.438;2024-02-26T04:23:02;5.45;;;3.45;;
80179;SDS011;69505;52.134;5.438;2024-02-26T04:25:29;6.05;;;3.58;;
80179;SDS011;69505;52.134;5.438;2024-02-26T04:27:56;7.75;;;4.20;;
80179;SDS011;69505;52.134;5.438;2024-02-26T04:30:23;5.70;;;4.03;;
80179;SDS011;69505;52.134;5.438;2024-02-26T04:32:50;4.95;;;3.35;;
80179;SDS011;69505;52.134;5.438;2024-02-26T04:35:17;6.70;;;4.10;;
80179;SDS011;69505;52.134;5.438;2024-02-26T04:37:43;6.43;;;4.22;;
80179;SDS011;69505;52.134;5.438;2024-02-26T04:40:10;7.22;;;3.97;;
80179;SDS011;69505;52.134;5.438;2024-02-26T04:42:37;5.35;;;3.67;;
80179;SDS011;69505;52.134;5.438;2024-02-26T04:45:04;8.02;;;3.83;;
80179;SDS011;69505;52.134;5.438;2024-02-26T04:47:31;6.75;;;3.47;;
80179;SDS011;69505;52.134;5.438;2024-02-26T04:49:57;6.25;;;4.15;;
80179;SDS011;69505;52.134;5.438;2024-02-26T04:52:24;5.68;;;3.50;;
80179;SDS011;69505;52.134;5.438;2024-02-26T04:54:51;5.65;;;3.80;;
80179;SDS011;69505;52.134;5.438;2024-02-26T04:57:18;7.15;;;4.28;;
80179;SDS011;69505;52.134;5.438;2024-02-26T04:59:45;5.65;;;3.90;;
80179;SDS011;69505;52.134;5.438;2024-02-26T05:02:12;6.22;;;3.92;;
80179;SDS011;69505;52.134;5.438;2024-02-26T05:04:39;6.40;;;4.10;;
80179;SDS011;69505;52.134;5.438;2024-02-26T05:07:06;7.43;;;4.00;;
80179;SDS011;69505;52.134;5.438;2024-02-26T05:09:33;6.53;;;3.97;;
80179;SDS011;69505;52.134;5.438;2024-02-26T05:11:59;5.72;;;3.78;;
80179;SDS011;69505;52.134;5.438;2024-02-26T05:14:26;8.30;;;4.32;;
80179;SDS011;69505;52.134;5.438;2024-02-26T05:16:53;6.90;;;4.65;;
80179;SDS011;69505;52.134;5.438;2024-02-26T05:19:19;6.90;;;4.22;;
80179;SDS011;69505;52.134;5.438;2024-02-26T05:21:46;6.45;;;3.95;;
80179;SDS011;69505;52.134;5.438;2024-02-26T05:24:15;6.70;;;4.13;;
80179;SDS011;69505;52.134;5.438;2024-02-26T05:26:44;6.90;;;4.18;;
80179;SDS011;69505;52.134;5.438;2024-02-26T05:29:11;7.20;;;4.32;;
80179;SDS011;69505;52.134;5.438;2024-02-26T05:31:38;9.82;;;4.13;;
80179;SDS011;69505;52.134;5.438;2024-02-26T05:34:05;6.88;;;4.32;;
80179;SDS011;69505;52.134;5.438;2024-02-26T05:36:31;7.18;;;4.10;;
80179;SDS011;69505;52.134;5.438;2024-02-26T05:39:00;5.40;;;3.58;;
80179;SDS011;69505;52.134;5.438;2024-02-26T05:41:27;6.82;;;4.70;;
80179;SDS011;69505;52.134;5.438;2024-02-26T05:43:54;7.60;;;4.57;;
80179;SDS011;69505;52.134;5.438;2024-02-26T05:46:22;7.72;;;4.60;;
80179;SDS011;69505;52.134;5.438;2024-02-26T05:48:50;8.32;;;5.30;;
80179;SDS011;69505;52.134;5.438;2024-02-26T05:51:18;6.93;;;4.60;;
80179;SDS011;69505;52.134;5.438;2024-02-26T05:53:44;8.13;;;4.72;;
80179;SDS011;69505;52.134;5.438;2024-02-26T05:56:13;7.90;;;4.45;;
80179;SDS011;69505;52.134;5.438;2024-02-26T05:58:39;8.35;;;4.95;;
80179;SDS011;69505;52.134;5.438;2024-02-26T06:01:06;8.68;;;4.75;;
80179;SDS011;69505;52.134;5.438;2024-02-26T06:03:32;9.15;;;4.53;;
80179;SDS011;69505;52.134;5.438;2024-02-26T06:05:59;10.15;;;4.95;;
80179;SDS011;69505;52.134;5.438;2024-02-26T06:08:26;7.93;;;4.35;;
80179;SDS011;69505;52.134;5.438;2024-02-26T06:10:53;8.70;;;5.03;;
80179;SDS011;69505;52.134;5.438;2024-02-26T06:13:19;7.95;;;4.68;;
80179;SDS011;69505;52.134;5.438;2024-02-26T06:15:47;8.20;;;4.65;;
80179;SDS011;69505;52.134;5.438;2024-02-26T06:18:13;8.68;;;5.45;;
80179;SDS011;69505;52.134;5.438;2024-02-26T06:20:40;9.45;;;4.75;;
80179;SDS011;69505;52.134;5.438;2024-02-26T06:23:07;8.55;;;5.10;;
80179;SDS011;69505;52.134;5.438;2024-02-26T06:25:33;8.40;;;4.85;;
80179;SDS011;69505;52.134;5.438;2024-02-26T06:28:00;8.95;;;5.05;;
80179;SDS011;69505;52.134;5.438;2024-02-26T06:30:27;9.52;;;5.05;;
80179;SDS011;69505;52.134;5.438;2024-02-26T06:32:53;9.10;;;5.18;;
80179;SDS011;69505;52.134;5.438;2024-02-26T06:35:20;8.75;;;5.47;;
80179;SDS011;69505;52.134;5.438;2024-02-26T06:37:47;8.38;;;5.22;;
80179;SDS011;69505;52.134;5.438;2024-02-26T06:40:13;8.77;;;5.15;;
80179;SDS011;69505;52.134;5.438;2024-02-26T06:42:40;10.60;;;4.97;;
80179;SDS011;69505;52.134;5.438;2024-02-26T06:45:07;8.98;;;5.00;;
80179;SDS011;69505;52.134;5.438;2024-02-26T06:47:34;9.23;;;5.55;;
80179;SDS011;69505;52.134;5.438;2024-02-26T06:50:00;11.25;;;5.57;;
80179;SDS011;69505;52.134;5.438;2024-02-26T06:52:27;10.88;;;5.53;;
80179;SDS011;69505;52.134;5.438;2024-02-26T06:54:54;9.70;;;5.40;;
80179;SDS011;69505;52.134;5.438;2024-02-26T06:57:21;9.93;;;5.22;;
80179;SDS011;69505;52.134;5.438;2024-02-26T06:59:48;9.75;;;5.82;;
80179;SDS011;69505;52.134;5.438;2024-02-26T07:02:14;9.55;;;5.60;;
80179;SDS011;69505;52.134;5.438;2024-02-26T07:04:42;9.93;;;5.50;;
80179;SDS011;69505;52.134;5.438;2024-02-26T07:07:09;11.93;;;5.97;;
80179;SDS011;69505;52.134;5.438;2024-02-26T07:09:37;13.63;;;6.63;;
80179;SDS011;69505;52.134;5.438;2024-02-26T07:12:03;12.40;;;6.40;;
80179;SDS011;69505;52.134;5.438;2024-02-26T07:14:30;11.43;;;6.10;;
80179;SDS011;69505;52.134;5.438;2024-02-26T07:16:57;12.50;;;6.20;;
80179;SDS011;69505;52.134;5.438;2024-02-26T07:19:24;12.35;;;5.82;;
80179;SDS011;69505;52.134;5.438;2024-02-26T07:21:51;12.98;;;6.18;;
80179;SDS011;69505;52.134;5.438;2024-02-26T07:24:18;13.55;;;7.15;;
80179;SDS011;69505;52.134;5.438;2024-02-26T07:26:44;13.00;;;6.57;;
80179;SDS011;69505;52.134;5.438;2024-02-26T07:29:11;13.60;;;6.93;;
80179;SDS011;69505;52.134;5.438;2024-02-26T07:31:38;12.70;;;5.95;;
80179;SDS011;69505;52.134;5.438;2024-02-26T07:34:05;13.13;;;6.95;;
80179;SDS011;69505;52.134;5.438;2024-02-26T07:36:31;12.07;;;6.88;;
80179;SDS011;69505;52.134;5.438;2024-02-26T07:38:58;17.85;;;7.57;;
80179;SDS011;69505;52.134;5.438;2024-02-26T07:41:25;14.18;;;7.82;;
80179;SDS011;69505;52.134;5.438;2024-02-26T07:43:52;15.98;;;8.30;;
80179;SDS011;69505;52.134;5.438;2024-02-26T07:46:18;15.43;;;8.10;;
80179;SDS011;69505;52.134;5.438;2024-02-26T07:48:45;16.95;;;8.55;;
80179;SDS011;69505;52.134;5.438;2024-02-26T07:51:12;14.13;;;7.80;;
80179;SDS011;69505;52.134;5.438;2024-02-26T07:53:43;14.30;;;8.18;;
80179;SDS011;69505;52.134;5.438;2024-02-26T07:56:10;15.05;;;8.13;;
80179;SDS011;69505;52.134;5.438;2024-02-26T07:58:36;14.70;;;7.45;;
80179;SDS011;69505;52.134;5.438;2024-02-26T08:01:03;14.95;;;7.78;;
80179;SDS011;69505;52.134;5.438;2024-02-26T08:03:30;14.93;;;7.85;;
80179;SDS011;69505;52.134;5.438;2024-02-26T08:05:57;15.68;;;8.25;;
80179;SDS011;69505;52.134;5.438;2024-02-26T08:08:24;14.65;;;7.93;;
80179;SDS011;69505;52.134;5.438;2024-02-26T08:10:50;12.50;;;7.38;;
80179;SDS011;69505;52.134;5.438;2024-02-26T08:13:17;14.57;;;7.50;;
80179;SDS011;69505;52.134;5.438;2024-02-26T08:15:44;12.95;;;7.50;;
80179;SDS011;69505;52.134;5.438;2024-02-26T08:18:10;13.68;;;7.55;;
80179;SDS011;69505;52.134;5.438;2024-02-26T08:20:37;12.85;;;7.40;;
80179;SDS011;69505;52.134;5.438;2024-02-26T08:23:04;12.07;;;7.60;;
80179;SDS011;69505;52.134;5.438;2024-02-26T08:25:30;10.70;;;6.65;;
80179;SDS011;69505;52.134;5.438;2024-02-26T08:27:57;11.23;;;6.90;;
80179;SDS011;69505;52.134;5.438;2024-02-26T08:30:24;12.02;;;6.40;;
80179;SDS011;69505;52.134;5.438;2024-02-26T08:32:50;11.05;;;6.03;;
80179;SDS011;69505;52.134;5.438;2024-02-26T08:35:18;10.85;;;5.57;;
80179;SDS011;69505;52.134;5.438;2024-02-26T08:37:45;11.25;;;6.03;;
80179;SDS011;69505;52.134;5.438;2024-02-26T08:40:13;10.32;;;5.65;;
80179;SDS011;69505;52.134;5.438;2024-02-26T08:42:40;9.68;;;5.22;;
80179;SDS011;69505;52.134;5.438;2024-02-26T08:45:08;10.70;;;5.45;;
80179;SDS011;69505;52.134;5.438;2024-02-26T08:47:35;9.20;;;5.25;;
80179;SDS011;69505;52.134;5.438;2024-02-26T08:50:02;9.38;;;5.30;;
80179;SDS011;69505;52.134;5.438;2024-02-26T08:52:29;8.63;;;5.03;;
80179;SDS011;69505;52.134;5.438;2024-02-26T08:54:56;8.63;;;4.88;;
80179;SDS011;69505;52.134;5.438;2024-02-26T08:57:24;8.18;;;5.05;;
80179;SDS011;69505;52.134;5.438;2024-02-26T08:59:53;8.10;;;5.10;;
80179;SDS011;69505;52.134;5.438;2024-02-26T09:02:20;8.15;;;4.63;;
80179;SDS011;69505;52.134;5.438;2024-02-26T09:04:47;7.82;;;4.95;;
80179;SDS011;69505;52.134;5.438;2024-02-26T09:07:14;9.27;;;4.53;;
80179;SDS011;69505;52.134;5.438;2024-02-26T09:09:40;7.43;;;4.60;;
80179;SDS011;69505;52.134;5.438;2024-02-26T09:12:08;8.30;;;4.45;;
80179;SDS011;69505;52.134;5.438;2024-02-26T09:14:34;6.93;;;4.60;;
80179;SDS011;69505;52.134;5.438;2024-02-26T09:17:01;7.00;;;4.43;;
80179;SDS011;69505;52.134;5.438;2024-02-26T09:19:28;7.72;;;4.53;;
80179;SDS011;69505;52.134;5.438;2024-02-26T09:21:55;7.57;;;4.72;;
80179;SDS011;69505;52.134;5.438;2024-02-26T09:24:24;7.45;;;4.40;;
80179;SDS011;69505;52.134;5.438;2024-02-26T09:26:51;8.20;;;4.72;;
80179;SDS011;69505;52.134;5.438;2024-02-26T09:29:18;6.95;;;4.30;;
80179;SDS011;69505;52.134;5.438;2024-02-26T09:31:45;8.88;;;3.78;;
80179;SDS011;69505;52.134;5.438;2024-02-26T09:34:14;7.00;;;4.30;;
80179;SDS011;69505;52.134;5.438;2024-02-26T09:36:41;6.63;;;4.10;;
80179;SDS011;69505;52.134;5.438;2024-02-26T09:39:07;5.70;;;3.83;;
80179;SDS011;69505;52.134;5.438;2024-02-26T09:41:38;6.80;;;3.90;;
80179;SDS011;69505;52.134;5.438;2024-02-26T09:44:05;6.45;;;4.25;;
80179;SDS011;69505;52.134;5.438;2024-02-26T09:46:33;7.38;;;3.60;;
80179;SDS011;69505;52.134;5.438;2024-02-26T09:49:00;6.57;;;3.90;;
80179;SDS011;69505;52.134;5.438;2024-02-26T09:51:27;5.43;;;3.40;;
80179;SDS011;69505;52.134;5.438;2024-02-26T09:53:56;10.73;;;3.85;;
80179;SDS011;69505;52.134;5.438;2024-02-26T09:56:28;7.22;;;3.72;;
80179;SDS011;69505;52.134;5.438;2024-02-26T09:58:57;5.95;;;3.65;;
80179;SDS011;69505;52.134;5.438;2024-02-26T10:01:24;5.60;;;3.50;;
80179;SDS011;69505;52.134;5.438;2024-02-26T10:03:53;5.85;;;3.47;;
80179;SDS011;69505;52.134;5.438;2024-02-26T10:06:24;5.88;;;3.40;;
80179;SDS011;69505;52.134;5.438;2024-02-26T10:08:53;7.28;;;3.38;;
80179;SDS011;69505;52.134;5.438;2024-02-26T10:11:21;6.47;;;3.63;;
80179;SDS011;69505;52.134;5.438;2024-02-26T10:13:48;6.72;;;3.67;;
80179;SDS011;69505;52.134;5.438;2024-02-26T10:16:15;5.90;;;3.20;;
80179;SDS011;69505;52.134;5.438;2024-02-26T10:18:49;5.95;;;3.75;;
80179;SDS011;69505;52.134;5.438;2024-02-26T10:21:25;5.35;;;3.10;;
80179;SDS011;69505;52.134;5.438;2024-02-26T10:23:51;5.70;;;3.13;;
80179;SDS011;69505;52.134;5.438;2024-02-26T10:26:18;6.53;;;3.78;;
80179;SDS011;69505;52.134;5.438;2024-02-26T10:28:46;6.35;;;3.28;;
80179;SDS011;69505;52.134;5.438;2024-02-26T10:31:18;5.63;;;3.70;;
80179;SDS011;69505;52.134;5.438;2024-02-26T10:33:45;6.63;;;3.40;;
80179;SDS011;69505;52.134;5.438;2024-02-26T10:36:12;6.05;;;3.25;;
80179;SDS011;69505;52.134;5.438;2024-02-26T10:38:39;7.40;;;3.35;;
80179;SDS011;69505;52.134;5.438;2024-02-26T10:41:06;5.38;;;3.47;;
80179;SDS011;69505;52.134;5.438;2024-02-26T10:43:33;6.03;;;3.85;;
80179;SDS011;69505;52.134;5.438;2024-02-26T10:45:59;6.05;;;3.42;;
80179;SDS011;69505;52.134;5.438;2024-02-26T10:48:26;5.38;;;3.35;;
80179;SDS011;69505;52.134;5.438;2024-02-26T10:50:53;6.13;;;3.30;;
80179;SDS011;69505;52.134;5.438;2024-02-26T10:53:22;7.88;;;3.08;;
80179;SDS011;69505;52.134;5.438;2024-02-26T10:56:03;6.03;;;3.08;;
80179;SDS011;69505;52.134;5.438;2024-02-26T10:58:33;5.07;;;3.28;;
80179;SDS011;69505;52.134;5.438;2024-02-26T11:01:02;4.90;;;3.28;;
80179;SDS011;69505;52.134;5.438;2024-02-26T11:03:31;4.55;;;2.83;;
80179;SDS011;69505;52.134;5.438;2024-02-26T11:06:01;4.45;;;2.60;;
80179;SDS011;69505;52.134;5.438;2024-02-26T11:08:30;6.55;;;3.42;;
80179;SDS011;69505;52.134;5.438;2024-02-26T11:10:58;6.10;;;3.40;;
80179;SDS011;69505;52.134;5.438;2024-02-26T11:13:29;5.75;;;3.03;;
80179;SDS011;69505;52.134;5.438;2024-02-26T11:16:00;5.18;;;3.25;;
80179;SDS011;69505;52.134;5.438;2024-02-26T11:18:27;5.40;;;3.25;;
80179;SDS011;69505;52.134;5.438;2024-02-26T11:20:56;5.00;;;3.40;;
80179;SDS011;69505;52.134;5.438;2024-02-26T11:23:24;7.07;;;3.50;;
80179;SDS011;69505;52.134;5.438;2024-02-26T11:25:50;5.25;;;3.53;;
80179;SDS011;69505;52.134;5.438;2024-02-26T11:28:20;5.25;;;3.10;;
80179;SDS011;69505;52.134;5.438;2024-02-26T11:30:49;6.43;;;3.63;;
80179;SDS011;69505;52.134;5.438;2024-02-26T11:33:18;5.70;;;3.17;;
80179;SDS011;69505;52.134;5.438;2024-02-26T11:35:46;4.45;;;2.63;;
80179;SDS011;69505;52.134;5.438;2024-02-26T11:38:17;6.90;;;4.18;;
80179;SDS011;69505;52.134;5.438;2024-02-26T11:40:45;5.10;;;3.13;;
80179;SDS011;69505;52.134;5.438;2024-02-26T11:43:12;4.15;;;2.42;;
80179;SDS011;69505;52.134;5.438;2024-02-26T11:48:12;5.13;;;3.25;;
80179;SDS011;69505;52.134;5.438;2024-02-26T11:50:46;7.43;;;3.75;;
80179;SDS011;69505;52.134;5.438;2024-02-26T11:53:20;5.85;;;3.33;;
80179;SDS011;69505;52.134;5.438;2024-02-26T11:58:59;5.38;;;3.35;;
80179;SDS011;69505;52.134;5.438;2024-02-26T12:01:41;5.43;;;3.22;;
80179;SDS011;69505;52.134;5.438;2024-02-26T12:04:12;6.53;;;3.70;;
80179;SDS011;69505;52.134;5.438;2024-02-26T12:06:41;5.78;;;3.75;;
80179;SDS011;69505;52.134;5.438;2024-02-26T12:09:09;6.20;;;3.50;;
80179;SDS011;69505;52.134;5.438;2024-02-26T12:11:40;6.22;;;3.65;;
80179;SDS011;69505;52.134;5.438;2024-02-26T12:14:09;6.00;;;3.60;;
80179;SDS011;69505;52.134;5.438;2024-02-26T12:19:07;5.93;;;3.60;;
80179;SDS011;69505;52.134;5.438;2024-02-26T12:21:35;5.32;;;3.13;;
80179;SDS011;69505;52.134;5.438;2024-02-26T12:24:15;5.85;;;2.95;;
80179;SDS011;69505;52.134;5.438;2024-02-26T12:26:42;5.05;;;3.22;;
80179;SDS011;69505;52.134;5.438;2024-02-26T12:29:08;5.85;;;3.47;;
80179;SDS011;69505;52.134;5.438;2024-02-26T12:31:37;4.55;;;2.83;;
80179;SDS011;69505;52.134;5.438;2024-02-26T12:34:06;5.53;;;3.55;;
80179;SDS011;69505;52.134;5.438;2024-02-26T12:36:36;5.03;;;3.05;;
80179;SDS011;69505;52.134;5.438;2024-02-26T12:39:03;5.88;;;3.85;;
80179;SDS011;69505;52.134;5.438;2024-02-26T12:43:59;5.03;;;3.17;;
80179;SDS011;69505;52.134;5.438;2024-02-26T12:46:26;6.35;;;3.25;;
80179;SDS011;69505;52.134;5.438;2024-02-26T12:48:55;6.00;;;3.55;;
80179;SDS011;69505;52.134;5.438;2024-02-26T12:51:25;5.45;;;3.28;;
80179;SDS011;69505;52.134;5.438;2024-02-26T12:53:53;5.57;;;3.30;;
80179;SDS011;69505;52.134;5.438;2024-02-26T12:56:22;5.97;;;3.45;;
80179;SDS011;69505;52.134;5.438;2024-02-26T12:58:50;5.47;;;3.38;;
80179;SDS011;69505;52.134;5.438;2024-02-26T13:01:22;6.00;;;3.55;;
80179;SDS011;69505;52.134;5.438;2024-02-26T13:03:50;5.25;;;3.03;;
80179;SDS011;69505;52.134;5.438;2024-02-26T13:06:19;6.20;;;3.42;;
80179;SDS011;69505;52.134;5.438;2024-02-26T13:08:48;6.20;;;3.78;;
80179;SDS011;69505;52.134;5.438;2024-02-26T13:11:15;5.75;;;3.38;;
80179;SDS011;69505;52.134;5.438;2024-02-26T13:13:42;5.15;;;3.17;;
80179;SDS011;69505;52.134;5.438;2024-02-26T13:16:10;5.25;;;3.13;;
80179;SDS011;69505;52.134;5.438;2024-02-26T13:18:41;4.75;;;3.05;;
80179;SDS011;69505;52.134;5.438;2024-02-26T13:23:37;4.93;;;3.17;;
80179;SDS011;69505;52.134;5.438;2024-02-26T13:26:05;6.45;;;3.72;;
80179;SDS011;69505;52.134;5.438;2024-02-26T13:28:32;5.30;;;3.30;;
80179;SDS011;69505;52.134;5.438;2024-02-26T13:30:59;4.93;;;3.20;;
80179;SDS011;69505;52.134;5.438;2024-02-26T13:33:27;5.30;;;2.92;;
80179;SDS011;69505;52.134;5.438;2024-02-26T13:35:56;6.00;;;3.03;;
80179;SDS011;69505;52.134;5.438;2024-02-26T13:38:23;5.53;;;3.13;;
80179;SDS011;69505;52.134;5.438;2024-02-26T13:40:50;6.78;;;3.30;;
80179;SDS011;69505;52.134;5.438;2024-02-26T13:43:18;6.05;;;3.40;;
80179;SDS011;69505;52.134;5.438;2024-02-26T13:45:46;5.22;;;2.75;;
80179;SDS011;69505;52.134;5.438;2024-02-26T13:48:13;4.80;;;3.20;;
80179;SDS011;69505;52.134;5.438;2024-02-26T13:50:41;4.85;;;2.72;;
80179;SDS011;69505;52.134;5.438;2024-02-26T13:53:12;5.65;;;2.92;;
80179;SDS011;69505;52.134;5.438;2024-02-26T13:55:40;4.78;;;3.03;;
80179;SDS011;69505;52.134;5.438;2024-02-26T13:58:11;4.65;;;2.92;;
80179;SDS011;69505;52.134;5.438;2024-02-26T14:00:40;5.18;;;2.92;;
80179;SDS011;69505;52.134;5.438;2024-02-26T14:05:35;4.72;;;2.95;;
80179;SDS011;69505;52.134;5.438;2024-02-26T14:08:02;4.53;;;2.90;;
80179;SDS011;69505;52.134;5.438;2024-02-26T14:10:29;5.40;;;2.90;;
80179;SDS011;69505;52.134;5.438;2024-02-26T14:12:58;4.45;;;2.58;;
80179;SDS011;69505;52.134;5.438;2024-02-26T14:15:25;4.65;;;3.03;;
80179;SDS011;69505;52.134;5.438;2024-02-26T14:17:52;4.13;;;2.80;;
80179;SDS011;69505;52.134;5.438;2024-02-26T14:20:20;6.13;;;2.60;;
80179;SDS011;69505;52.134;5.438;2024-02-26T14:22:48;4.97;;;2.53;;
80179;SDS011;69505;52.134;5.438;2024-02-26T14:25:15;4.43;;;2.53;;
80179;SDS011;69505;52.134;5.438;2024-02-26T14:27:42;4.70;;;2.50;;
80179;SDS011;69505;52.134;5.438;2024-02-26T14:30:08;3.65;;;2.13;;
80179;SDS011;69505;52.134;5.438;2024-02-26T14:32:35;3.90;;;2.42;;
80179;SDS011;69505;52.134;5.438;2024-02-26T14:35:05;5.82;;;2.50;;
80179;SDS011;69505;52.134;5.438;2024-02-26T14:37:36;4.20;;;2.60;;
80179;SDS011;69505;52.134;5.438;2024-02-26T14:40:03;4.85;;;2.92;;
80179;SDS011;69505;52.134;5.438;2024-02-26T14:42:30;4.38;;;2.75;;
80179;SDS011;69505;52.134;5.438;2024-02-26T14:44:57;3.97;;;2.50;;
80179;SDS011;69505;52.134;5.438;2024-02-26T14:47:24;3.47;;;2.15;;
80179;SDS011;69505;52.134;5.438;2024-02-26T14:49:50;4.25;;;2.45;;
80179;SDS011;69505;52.134;5.438;2024-02-26T14:52:18;3.50;;;2.22;;
80179;SDS011;69505;52.134;5.438;2024-02-26T14:54:45;3.97;;;2.33;;
80179;SDS011;69505;52.134;5.438;2024-02-26T14:57:11;4.07;;;2.35;;
80179;SDS011;69505;52.134;5.438;2024-02-26T14:59:38;4.85;;;2.42;;
80179;SDS011;69505;52.134;5.438;2024-02-26T15:02:05;4.97;;;3.33;;